createdAt,value
2017-09-21T00:02:01.917Z,93.40
2017-09-21T00:05:04.279Z,93.40
2017-09-21T00:08:06.215Z,93.50
2017-09-21T00:11:08.584Z,93.40
2017-09-21T00:14:10.535Z,93.30
2017-09-21T00:17:12.895Z,93.30
2017-09-21T00:20:14.822Z,93.40
2017-09-21T00:23:17.215Z,93.40
2017-09-21T00:26:19.150Z,93.30
2017-09-21T00:29:21.505Z,93.40
2017-09-21T00:32:23.546Z,93.30
2017-09-21T00:35:25.886Z,93.40
2017-09-21T00:38:27.823Z,93.40
2017-09-21T00:41:30.926Z,93.50
2017-09-21T00:44:32.980Z,93.50
2017-09-21T00:47:35.323Z,93.50
2017-09-21T00:50:37.296Z,93.60
2017-09-21T00:53:39.651Z,93.60
2017-09-21T00:56:41.584Z,93.70
2017-09-21T00:59:43.956Z,93.80
2017-09-21T01:02:46.002Z,93.90
2017-09-21T01:05:48.281Z,94.00
2017-09-21T01:08:50.260Z,94.00
2017-09-21T01:11:52.649Z,94.00
2017-09-21T01:14:54.612Z,93.90
2017-09-21T01:17:57.801Z,93.90
2017-09-21T01:20:59.740Z,93.90
2017-09-21T01:24:02.090Z,93.90
2017-09-21T01:27:04.853Z,93.80
2017-09-21T01:33:14.414Z,93.80
2017-09-21T01:36:16.736Z,93.80
2017-09-21T01:39:18.698Z,93.80
2017-09-21T01:42:21.060Z,93.80
2017-09-21T01:45:22.994Z,93.90
2017-09-21T01:48:32.106Z,93.80
2017-09-21T01:51:34.045Z,93.70
2017-09-21T01:54:36.391Z,93.70
2017-09-21T01:57:39.123Z,93.50
2017-09-21T02:00:41.647Z,93.50
2017-09-21T02:03:43.579Z,93.40
2017-09-21T02:06:45.950Z,93.20
2017-09-21T02:09:47.898Z,93.20
2017-09-21T02:12:50.203Z,93.00
2017-09-21T02:15:53.249Z,92.90
2017-09-21T02:18:56.507Z,92.80
2017-09-21T02:21:58.447Z,92.60
2017-09-21T02:25:00.810Z,92.50
2017-09-21T02:28:02.791Z,92.50
2017-09-21T02:31:05.219Z,92.50
2017-09-21T02:34:07.162Z,92.40
2017-09-21T02:37:09.543Z,92.30
2017-09-21T02:40:11.568Z,92.30
2017-09-21T02:43:13.939Z,92.30
2017-09-21T02:46:15.984Z,92.10
2017-09-21T02:49:18.345Z,92.00
2017-09-21T02:52:21.151Z,92.00
2017-09-21T02:55:25.112Z,91.90
2017-09-21T02:58:27.105Z,91.90
2017-09-21T03:01:30.225Z,92.10
2017-09-21T03:04:32.175Z,92.00
2017-09-21T03:07:34.544Z,92.10
2017-09-21T03:10:36.532Z,92.20
2017-09-21T03:13:38.943Z,92.30
2017-09-21T03:16:40.885Z,92.30
2017-09-21T03:19:43.259Z,92.20
2017-09-21T03:22:45.191Z,92.10
2017-09-21T03:25:47.497Z,92.20
2017-09-21T03:28:49.436Z,92.20
2017-09-21T03:31:52.062Z,92.20
2017-09-21T03:34:53.998Z,92.30
2017-09-21T03:37:56.469Z,92.30
2017-09-21T03:40:58.413Z,92.30
2017-09-21T03:44:00.702Z,92.40
2017-09-21T03:47:02.716Z,92.30
2017-09-21T03:50:05.002Z,92.30
2017-09-21T03:53:06.944Z,92.30
2017-09-21T03:56:09.486Z,92.30
2017-09-21T03:59:11.426Z,92.30
2017-09-21T04:02:13.900Z,92.30
2017-09-21T04:05:15.950Z,92.40
2017-09-21T04:08:18.300Z,92.50
2017-09-21T04:11:20.244Z,92.40
2017-09-21T04:14:22.621Z,92.50
2017-09-21T04:17:24.672Z,92.40
2017-09-21T04:20:27.834Z,92.50
2017-09-21T04:23:29.771Z,92.50
2017-09-21T04:26:32.131Z,92.40
2017-09-21T04:29:34.106Z,92.50
2017-09-21T04:32:36.460Z,92.50
2017-09-21T04:35:38.507Z,92.50
2017-09-21T04:38:40.865Z,92.50
2017-09-21T04:41:42.908Z,92.50
2017-09-21T04:44:45.265Z,92.60
2017-09-21T04:47:47.208Z,92.60
2017-09-21T04:50:49.558Z,92.60
2017-09-21T04:53:51.514Z,92.60
2017-09-21T04:56:53.876Z,92.60
2017-09-21T04:59:55.861Z,92.50
2017-09-21T05:02:58.172Z,92.60
2017-09-21T05:06:00.098Z,92.60
2017-09-21T05:09:02.488Z,92.60
2017-09-21T05:12:04.433Z,92.60
2017-09-21T05:15:06.796Z,92.50
2017-09-21T05:18:08.737Z,92.60
2017-09-21T05:21:11.088Z,92.60
2017-09-21T05:24:13.034Z,92.60
2017-09-21T05:27:16.207Z,92.60
2017-09-21T05:30:18.166Z,92.50
2017-09-21T05:33:20.484Z,92.50
2017-09-21T05:36:22.441Z,92.50
2017-09-21T05:39:24.794Z,92.50
2017-09-21T05:42:26.836Z,92.50
2017-09-21T05:45:29.183Z,92.50
2017-09-21T05:48:31.137Z,92.40
2017-09-21T05:51:33.518Z,92.40
2017-09-21T05:54:35.564Z,92.40
2017-09-21T05:57:37.912Z,92.60
2017-09-21T06:00:39.842Z,92.60
2017-09-21T06:03:42.331Z,92.70
2017-09-21T06:06:45.970Z,92.80
2017-09-21T06:09:49.155Z,92.60
2017-09-21T06:12:52.070Z,92.60
2017-09-21T06:15:54.529Z,92.50
2017-09-21T06:18:56.468Z,92.30
2017-09-21T06:21:58.837Z,92.30
2017-09-21T06:25:01.804Z,92.40
2017-09-21T06:28:04.142Z,92.00
2017-09-21T06:31:06.122Z,91.90
2017-09-21T06:34:08.471Z,91.80
2017-09-21T06:37:11.051Z,91.70
2017-09-21T06:40:14.408Z,91.90
2017-09-21T06:43:16.546Z,91.60
2017-09-21T06:46:18.897Z,91.50
2017-09-21T06:49:20.843Z,91.10
2017-09-21T06:52:23.215Z,90.50
2017-09-21T06:55:25.160Z,89.80
2017-09-21T06:58:27.517Z,88.90
2017-09-21T07:01:29.646Z,88.40
2017-09-21T07:04:32.754Z,87.60
2017-09-21T07:07:34.799Z,87.60
2017-09-21T07:10:37.144Z,87.20
2017-09-21T07:13:39.088Z,87.40
2017-09-21T07:16:41.480Z,86.90
2017-09-21T07:19:43.419Z,86.70
2017-09-21T07:22:45.768Z,86.50
2017-09-21T07:25:47.708Z,86.40
2017-09-21T07:28:50.174Z,86.50
2017-09-21T07:31:52.123Z,86.30
2017-09-21T07:34:54.479Z,86.50
2017-09-21T07:37:56.534Z,86.00
2017-09-21T07:40:58.875Z,85.60
2017-09-21T07:44:00.836Z,85.30
2017-09-21T07:47:03.184Z,85.20
2017-09-21T07:50:06.051Z,85.00
2017-09-21T07:53:08.408Z,84.80
2017-09-21T07:56:10.354Z,85.10
2017-09-21T07:59:12.647Z,85.00
2017-09-21T08:02:14.687Z,82.40
2017-09-21T08:05:17.131Z,79.10
2017-09-21T08:08:19.184Z,75.20
2017-09-21T08:11:25.894Z,73.50
2017-09-21T08:14:28.597Z,71.00
2017-09-21T08:17:30.970Z,70.90
2017-09-21T08:20:32.999Z,67.80
2017-09-21T08:23:35.574Z,62.10
2017-09-21T08:26:48.914Z,59.10
2017-09-21T08:29:51.248Z,56.70
2017-09-21T08:32:53.192Z,56.50
2017-09-21T08:35:55.546Z,56.20
2017-09-21T08:38:57.512Z,55.10
2017-09-21T08:42:00.001Z,52.80
2017-09-21T08:45:01.939Z,51.00
2017-09-21T08:48:04.362Z,50.60
2017-09-21T08:51:06.346Z,49.20
2017-09-21T08:54:08.709Z,48.60
2017-09-21T08:57:10.660Z,46.30
2017-09-21T09:00:13.001Z,44.70
2017-09-21T09:03:14.992Z,43.00
2017-09-21T09:06:18.086Z,37.10
2017-09-21T09:09:20.024Z,36.90
2017-09-21T09:12:22.434Z,35.90
2017-09-21T09:15:24.476Z,34.50
2017-09-21T09:18:26.921Z,33.10
2017-09-21T09:21:28.858Z,32.90
2017-09-21T09:24:31.239Z,31.80
2017-09-21T09:27:33.268Z,31.50
2017-09-21T09:30:36.237Z,31.00
2017-09-21T09:33:38.168Z,30.20
2017-09-21T09:36:41.268Z,29.80
2017-09-21T09:39:43.209Z,29.80
2017-09-21T09:42:45.590Z,31.00
2017-09-21T09:45:47.612Z,30.80
2017-09-21T09:48:49.965Z,30.20
2017-09-21T09:51:51.920Z,29.80
2017-09-21T09:54:54.275Z,29.00
2017-09-21T09:57:56.295Z,28.60
2017-09-21T10:00:59.558Z,29.20
2017-09-21T10:04:01.502Z,29.20
2017-09-21T10:07:03.811Z,29.10
2017-09-21T10:10:05.920Z,28.70
2017-09-21T10:13:08.327Z,28.90
2017-09-21T10:16:10.257Z,28.10
2017-09-21T10:19:12.559Z,28.40
2017-09-21T10:22:14.773Z,28.60
2017-09-21T10:25:17.179Z,28.90
2017-09-21T10:28:19.731Z,28.50
2017-09-21T10:31:22.077Z,26.60
2017-09-21T10:34:24.010Z,26.90
2017-09-21T10:37:27.115Z,27.40
2017-09-21T10:40:29.059Z,27.40
2017-09-21T10:43:31.356Z,27.20
2017-09-21T10:46:33.362Z,26.90
2017-09-21T10:49:35.650Z,26.70
2017-09-21T10:52:37.666Z,26.70
2017-09-21T10:55:40.030Z,26.80
2017-09-21T10:58:41.995Z,25.90
2017-09-21T11:01:44.389Z,25.40
2017-09-21T11:04:46.326Z,25.50
2017-09-21T11:07:48.594Z,24.80
2017-09-21T11:10:50.593Z,25.20
2017-09-21T11:13:52.961Z,25.10
2017-09-21T11:16:54.898Z,26.30
2017-09-21T11:19:57.242Z,29.10
2017-09-21T11:22:59.182Z,29.50
2017-09-21T11:26:01.581Z,27.40
2017-09-21T11:29:03.600Z,27.00
2017-09-21T11:32:05.969Z,28.00
2017-09-21T11:35:07.894Z,27.00
2017-09-21T11:38:10.373Z,26.30
2017-09-21T11:41:12.312Z,25.00
2017-09-21T11:44:14.670Z,23.60
2017-09-21T11:47:16.664Z,22.90
2017-09-21T11:50:18.995Z,22.40
2017-09-21T11:53:21.046Z,22.10
2017-09-21T11:56:24.518Z,22.30
2017-09-21T11:59:26.454Z,22.30
2017-09-21T12:02:28.817Z,24.00
2017-09-21T12:05:30.758Z,26.00
2017-09-21T12:08:33.917Z,29.30
2017-09-21T12:11:36.742Z,32.50
2017-09-21T12:14:39.197Z,32.40
2017-09-21T12:17:41.250Z,32.80
2017-09-21T12:20:43.627Z,33.50
2017-09-21T12:23:45.601Z,36.70
2017-09-21T12:26:48.008Z,40.40
2017-09-21T12:29:50.064Z,42.10
2017-09-21T12:32:52.412Z,44.00
2017-09-21T12:35:54.348Z,44.50
2017-09-21T12:38:56.704Z,44.20
2017-09-21T12:41:59.573Z,43.50
2017-09-21T12:45:01.956Z,43.40
2017-09-21T12:48:04.013Z,44.00
2017-09-21T12:51:06.387Z,43.90
2017-09-21T12:54:08.338Z,43.30
2017-09-21T12:57:10.672Z,41.20
2017-09-21T13:00:12.609Z,39.90
2017-09-21T13:03:14.968Z,39.00
2017-09-21T13:06:17.025Z,37.90
2017-09-21T13:09:19.322Z,35.80
2017-09-21T13:12:22.027Z,33.40
2017-09-21T13:15:24.473Z,33.40
2017-09-21T13:18:26.431Z,32.70
2017-09-21T13:21:28.887Z,32.80
2017-09-21T13:24:32.198Z,32.30
2017-09-21T13:27:34.487Z,30.90
2017-09-21T13:30:37.184Z,32.80
2017-09-21T13:33:39.704Z,32.10
2017-09-21T13:36:41.704Z,32.50
2017-09-21T13:39:44.064Z,33.70
2017-09-21T13:42:46.015Z,33.30
2017-09-21T13:45:48.440Z,33.80
2017-09-21T13:48:50.443Z,32.30
2017-09-21T13:51:52.778Z,31.70
2017-09-21T13:54:54.716Z,33.70
2017-09-21T13:57:57.187Z,33.20
2017-09-21T14:00:59.246Z,32.80
2017-09-21T14:04:01.605Z,32.00
2017-09-21T14:07:03.551Z,31.40
2017-09-21T14:10:06.111Z,31.30
2017-09-21T14:13:08.152Z,31.10
2017-09-21T14:16:10.547Z,32.30
2017-09-21T14:19:12.673Z,33.00
2017-09-21T14:22:15.019Z,33.70
2017-09-21T14:25:16.970Z,35.10
2017-09-21T14:28:19.409Z,34.60
2017-09-21T14:31:22.132Z,33.90
2017-09-21T14:34:24.494Z,33.90
2017-09-21T14:37:26.426Z,35.10
2017-09-21T14:40:28.771Z,37.00
2017-09-21T14:43:30.815Z,39.70
2017-09-21T14:46:33.174Z,40.80
2017-09-21T14:49:35.132Z,40.70
2017-09-21T14:52:37.471Z,40.90
2017-09-21T14:55:39.436Z,42.20
2017-09-21T14:58:41.789Z,42.00
2017-09-21T15:01:43.724Z,42.40
2017-09-21T15:04:46.095Z,43.70
2017-09-21T15:07:48.029Z,43.80
2017-09-21T15:10:50.392Z,43.70
2017-09-21T15:13:52.545Z,44.10
2017-09-21T15:16:54.911Z,43.90
2017-09-21T15:19:57.784Z,44.30
2017-09-21T15:23:00.134Z,44.20
2017-09-21T15:26:02.284Z,44.80
2017-09-21T15:29:05.372Z,44.00
2017-09-21T15:32:07.304Z,44.40
2017-09-21T15:35:09.680Z,44.70
2017-09-21T15:38:11.613Z,44.70
2017-09-21T15:41:13.983Z,44.70
2017-09-21T15:44:16.539Z,43.90
2017-09-21T15:47:18.921Z,44.40
2017-09-21T15:50:20.852Z,45.70
2017-09-21T15:53:23.323Z,45.80
2017-09-21T15:56:25.276Z,47.30
2017-09-21T15:59:27.619Z,47.40
2017-09-21T16:02:29.665Z,48.40
2017-09-21T16:05:32.102Z,49.20
2017-09-21T16:08:34.079Z,49.40
2017-09-21T16:11:36.518Z,49.60
2017-09-21T16:14:38.476Z,49.80
2017-09-21T16:17:40.840Z,50.40
2017-09-21T16:20:42.885Z,51.00
2017-09-21T16:23:45.245Z,52.10
2017-09-21T16:26:47.208Z,52.70
2017-09-21T16:29:49.551Z,54.00
2017-09-21T16:32:51.488Z,55.60
2017-09-21T16:35:53.833Z,57.20
2017-09-21T16:38:55.997Z,58.20
2017-09-21T16:41:58.358Z,59.20
2017-09-21T16:45:00.324Z,59.60
2017-09-21T16:48:03.029Z,60.50
2017-09-21T16:51:05.019Z,62.40
2017-09-21T16:54:07.391Z,63.30
2017-09-21T16:57:09.329Z,64.30
2017-09-21T17:00:11.684Z,65.40
2017-09-21T17:03:13.622Z,66.70
2017-09-21T17:06:15.996Z,67.70
2017-09-21T17:09:17.941Z,68.50
2017-09-21T17:12:20.364Z,69.50
2017-09-21T17:15:23.060Z,72.10
2017-09-21T17:18:25.523Z,72.10
2017-09-21T17:21:27.472Z,73.10
2017-09-21T17:24:29.825Z,74.10
2017-09-21T17:27:31.888Z,74.60
2017-09-21T17:30:34.232Z,75.00
2017-09-21T17:33:36.172Z,75.60
2017-09-21T17:36:38.642Z,76.40
2017-09-21T17:39:40.621Z,77.20
2017-09-21T17:42:42.947Z,77.70
2017-09-21T17:45:44.893Z,78.20
2017-09-21T17:48:47.367Z,78.80
2017-09-21T17:51:49.425Z,79.20
2017-09-21T17:54:51.782Z,79.90
2017-09-21T17:57:53.832Z,80.60
2017-09-21T18:00:56.185Z,81.30
2017-09-21T18:03:58.228Z,81.80
2017-09-21T18:07:00.580Z,82.10
2017-09-21T18:10:02.557Z,82.60
2017-09-21T18:13:04.891Z,83.10
2017-09-21T18:16:06.845Z,83.60
2017-09-21T18:19:09.219Z,83.90
2017-09-21T18:22:11.249Z,84.30
2017-09-21T18:25:13.613Z,84.50
2017-09-21T18:28:15.713Z,84.60
2017-09-21T18:31:18.645Z,84.60
2017-09-21T18:34:20.676Z,85.00
2017-09-21T18:37:23.037Z,85.30
2017-09-21T18:40:24.976Z,85.50
2017-09-21T18:43:27.348Z,85.80
2017-09-21T18:46:29.317Z,85.90
2017-09-21T18:49:32.225Z,86.00
2017-09-21T18:52:34.340Z,86.00
2017-09-21T18:55:36.664Z,86.10
2017-09-21T18:58:38.629Z,86.30
2017-09-21T19:01:40.990Z,86.80
2017-09-21T19:04:42.947Z,87.10
2017-09-21T19:07:45.293Z,87.10
2017-09-21T19:10:47.261Z,87.00
2017-09-21T19:13:49.583Z,87.20
2017-09-21T19:16:51.541Z,87.20
2017-09-21T19:19:53.900Z,87.30
2017-09-21T19:22:56.248Z,87.40
2017-09-21T19:25:58.649Z,87.50
2017-09-21T19:29:00.664Z,87.70
2017-09-21T19:32:03.036Z,87.70
2017-09-21T19:35:04.992Z,87.80
2017-09-21T19:38:07.347Z,87.90
2017-09-21T19:41:10.310Z,88.30
2017-09-21T19:44:12.795Z,88.30
2017-09-21T19:47:14.743Z,88.50
2017-09-21T19:50:17.289Z,88.70
2017-09-21T19:53:19.358Z,88.80
2017-09-21T19:56:22.529Z,89.00
2017-09-21T19:59:24.542Z,88.90
2017-09-21T20:02:26.913Z,89.00
2017-09-21T20:05:28.871Z,89.10
2017-09-21T20:08:31.928Z,89.10
2017-09-21T20:11:33.980Z,89.30
2017-09-21T20:14:36.351Z,89.30
2017-09-21T20:17:38.375Z,89.30
2017-09-21T20:20:40.764Z,89.40
2017-09-21T20:23:42.752Z,89.50
2017-09-21T20:26:45.858Z,89.60
2017-09-21T20:29:47.896Z,89.60
2017-09-21T20:32:50.283Z,89.70
2017-09-21T20:35:52.234Z,89.70
2017-09-21T20:38:54.698Z,89.70
2017-09-21T20:41:56.788Z,89.80
2017-09-21T20:44:59.944Z,89.80
2017-09-21T20:48:01.896Z,89.80
2017-09-21T20:51:04.226Z,89.80
2017-09-21T20:54:06.184Z,89.70
2017-09-21T20:57:08.534Z,89.90
2017-09-21T21:00:10.577Z,89.80
2017-09-21T21:03:12.935Z,89.90
2017-09-21T21:06:14.897Z,90.00
2017-09-21T21:09:17.328Z,90.00
2017-09-21T21:12:20.249Z,90.10
2017-09-21T21:15:22.612Z,90.10
2017-09-21T21:18:24.543Z,90.00
2017-09-21T21:21:26.808Z,90.50
2017-09-21T21:24:29.116Z,90.10
2017-09-21T21:27:31.480Z,90.20
2017-09-21T21:30:33.431Z,90.20
2017-09-21T21:33:35.715Z,90.30
2017-09-21T21:36:37.643Z,90.30
2017-09-21T21:39:40.902Z,90.30
2017-09-21T21:42:42.868Z,90.30
2017-09-21T21:45:45.237Z,90.40
2017-09-21T21:48:47.172Z,90.40
2017-09-21T21:51:49.527Z,90.50
2017-09-21T21:54:51.578Z,90.60
2017-09-21T21:57:53.927Z,90.70
2017-09-21T22:00:56.685Z,90.70
2017-09-21T22:03:59.070Z,90.70
2017-09-21T22:07:01.118Z,90.80
2017-09-21T22:10:03.482Z,90.80
2017-09-21T22:13:05.469Z,90.80
2017-09-21T22:16:08.513Z,90.90
2017-09-21T22:19:10.529Z,90.90
2017-09-21T22:22:13.019Z,90.90
2017-09-21T22:25:15.034Z,91.00
2017-09-21T22:28:17.391Z,91.00
2017-09-21T22:31:19.318Z,91.10
2017-09-21T22:34:22.363Z,91.10
2017-09-21T22:37:24.379Z,91.10
2017-09-21T22:40:26.740Z,91.20
2017-09-21T22:43:28.763Z,91.20
2017-09-21T22:46:31.194Z,91.30
2017-09-21T22:49:33.183Z,91.40
2017-09-21T22:52:35.547Z,91.40
2017-09-21T22:55:37.533Z,91.50
2017-09-21T22:58:39.846Z,91.50
2017-09-21T23:01:41.779Z,91.50
2017-09-21T23:04:44.150Z,91.60
2017-09-21T23:07:46.217Z,91.60
2017-09-21T23:10:48.681Z,91.70
2017-09-21T23:13:50.636Z,91.70
2017-09-21T23:16:53.063Z,91.60
2017-09-21T23:19:55.025Z,91.60
2017-09-21T23:22:57.372Z,91.50
2017-09-21T23:25:59.308Z,91.50
2017-09-21T23:29:01.693Z,91.50
2017-09-21T23:32:03.732Z,91.50
2017-09-21T23:35:06.083Z,91.40
2017-09-21T23:38:09.067Z,91.60
2017-09-21T23:41:11.515Z,91.90
2017-09-21T23:44:13.447Z,91.90
2017-09-21T23:47:16.556Z,91.90
2017-09-21T23:50:18.594Z,91.90
2017-09-21T23:53:20.965Z,91.90
2017-09-21T23:56:23.208Z,91.90
2017-09-21T23:59:25.562Z,91.90
